createdAt,value
2022-07-28T00:02:54.912Z,4.47
2022-07-28T00:05:56.950Z,4.03
2022-07-28T00:08:58.836Z,4.72
2022-07-28T00:12:00.762Z,5.47
2022-07-28T00:15:03.060Z,4.25
2022-07-28T00:18:05.073Z,3.83
2022-07-28T00:21:07.033Z,4.03
2022-07-28T00:24:09.036Z,4.30
2022-07-28T00:27:11.009Z,4.95
2022-07-28T00:30:13.125Z,4.25
2022-07-28T00:33:15.131Z,5.68
2022-07-28T00:36:17.182Z,5.13
2022-07-28T00:39:19.106Z,5.35
2022-07-28T00:42:21.486Z,4.55
2022-07-28T00:48:25.515Z,4.65
2022-07-28T00:51:27.940Z,5.78
2022-07-28T00:57:31.686Z,4.85
2022-07-28T01:00:33.647Z,5.22
2022-07-28T01:03:40.123Z,6.75
2022-07-28T01:07:23.434Z,5.50
2022-07-28T01:10:42.704Z,4.60
2022-07-28T01:13:59.666Z,5.32
2022-07-28T01:17:19.579Z,4.32
2022-07-28T01:20:41.760Z,4.90
2022-07-28T01:24:05.518Z,4.78
2022-07-28T01:27:26.735Z,5.32
2022-07-28T01:30:49.939Z,5.70
2022-07-28T01:33:57.907Z,5.60
2022-07-28T01:37:22.033Z,5.03
2022-07-28T01:40:29.498Z,5.80
2022-07-28T01:43:36.846Z,4.88
2022-07-28T01:46:39.204Z,5.80
2022-07-28T01:52:46.155Z,6.00
2022-07-28T01:55:49.395Z,5.57
2022-07-28T01:58:52.738Z,5.53
2022-07-28T02:01:54.999Z,5.30
2022-07-28T02:04:59.051Z,5.00
2022-07-28T02:08:02.997Z,5.38
2022-07-28T02:11:05.123Z,4.97
2022-07-28T02:14:16.616Z,5.30
2022-07-28T02:17:27.347Z,5.13
2022-07-28T02:20:29.992Z,5.10
2022-07-28T02:23:34.079Z,5.00
2022-07-28T02:26:39.645Z,5.18
2022-07-28T02:29:51.038Z,4.95
2022-07-28T02:32:56.315Z,4.60
2022-07-28T02:36:19.391Z,4.78
2022-07-28T02:39:34.383Z,5.38
2022-07-28T02:42:38.855Z,5.85
2022-07-28T02:45:44.333Z,6.00
2022-07-28T02:48:50.461Z,6.15
2022-07-28T02:51:53.514Z,5.63
2022-07-28T02:54:57.618Z,5.50
2022-07-28T02:58:01.252Z,5.50
2022-07-28T03:01:07.779Z,5.40
2022-07-28T03:07:13.050Z,5.13
2022-07-28T03:10:33.989Z,4.88
2022-07-28T03:13:37.081Z,5.65
2022-07-28T03:19:41.254Z,5.47
2022-07-28T03:22:43.198Z,5.57
2022-07-28T03:25:49.245Z,5.43
2022-07-28T03:28:52.674Z,6.03
2022-07-28T03:31:56.245Z,5.88
2022-07-28T03:34:58.844Z,6.47
2022-07-28T03:38:20.322Z,6.65
2022-07-28T03:41:24.140Z,6.05
2022-07-28T03:44:28.720Z,5.50
2022-07-28T03:47:31.058Z,6.18
2022-07-28T03:50:33.772Z,6.50
2022-07-28T03:53:36.143Z,6.82
2022-07-28T03:56:38.038Z,6.68
2022-07-28T03:59:39.948Z,6.78
2022-07-28T04:02:42.853Z,6.82
2022-07-28T04:05:45.308Z,7.95
2022-07-28T04:11:49.089Z,7.30
2022-07-28T04:14:51.094Z,8.02
2022-07-28T04:17:54.790Z,7.57
2022-07-28T04:20:56.723Z,8.13
2022-07-28T04:24:02.011Z,7.85
2022-07-28T04:27:04.205Z,8.57
2022-07-28T04:30:08.622Z,8.82
2022-07-28T04:33:10.490Z,9.40
2022-07-28T04:36:12.755Z,9.45
2022-07-28T04:39:14.650Z,9.18
2022-07-28T04:42:19.601Z,9.13
2022-07-28T04:45:21.790Z,8.55
2022-07-28T04:48:24.511Z,8.75
2022-07-28T04:51:26.581Z,7.97
2022-07-28T04:54:28.503Z,8.80
2022-07-28T04:57:30.421Z,8.02
2022-07-28T05:00:32.558Z,8.52
2022-07-28T05:06:38.543Z,6.32
2022-07-28T05:09:40.487Z,6.00
2022-07-28T05:15:44.382Z,6.53
2022-07-28T05:18:46.432Z,4.90
2022-07-28T05:21:48.339Z,5.88
2022-07-28T05:24:50.464Z,5.85
2022-07-28T05:27:53.511Z,5.88
2022-07-28T05:37:03.908Z,7.97
2022-07-28T05:40:11.433Z,9.50
2022-07-28T05:46:15.194Z,9.27
2022-07-28T05:49:17.208Z,7.15
2022-07-28T05:52:19.212Z,7.20
2022-07-28T05:55:21.135Z,6.97
2022-07-28T05:58:23.824Z,6.72
2022-07-28T06:01:26.478Z,5.45
2022-07-28T06:04:29.180Z,5.95
2022-07-28T06:07:43.509Z,5.22
2022-07-28T06:10:46.322Z,5.50
2022-07-28T06:13:48.285Z,5.13
2022-07-28T06:16:50.282Z,5.20
2022-07-28T06:19:52.315Z,5.38
2022-07-28T06:22:55.571Z,5.63
2022-07-28T06:28:59.277Z,6.15
2022-07-28T06:32:01.235Z,5.75
2022-07-28T06:35:05.614Z,5.88
2022-07-28T06:38:07.534Z,5.97
2022-07-28T06:41:09.501Z,6.93
2022-07-28T06:44:12.429Z,6.38
2022-07-28T06:47:14.619Z,5.90
2022-07-28T06:50:25.066Z,5.50
2022-07-28T06:53:34.012Z,5.15
2022-07-28T06:56:36.669Z,5.25
2022-07-28T06:59:40.195Z,5.60
2022-07-28T07:02:42.341Z,4.78
2022-07-28T07:08:46.160Z,4.65
2022-07-28T07:11:48.208Z,4.53
2022-07-28T07:14:50.207Z,4.72
2022-07-28T07:17:52.100Z,5.18
2022-07-28T07:20:56.545Z,3.90
2022-07-28T07:23:58.485Z,4.63
2022-07-28T07:27:00.381Z,4.45
2022-07-28T07:30:03.363Z,4.50
2022-07-28T07:33:07.072Z,3.70
2022-07-28T07:36:11.598Z,4.22
2022-07-28T07:42:15.301Z,4.55
2022-07-28T07:45:17.252Z,4.53
2022-07-28T07:48:19.303Z,5.05
2022-07-28T07:51:21.214Z,4.40
2022-07-28T07:54:23.138Z,4.65
2022-07-28T07:57:25.040Z,5.70
2022-07-28T08:00:28.920Z,4.53
2022-07-28T08:06:34.777Z,4.25
2022-07-28T08:09:37.876Z,4.85
2022-07-28T08:12:39.832Z,4.95
2022-07-28T08:15:41.806Z,4.35
2022-07-28T08:18:43.716Z,4.55
2022-07-28T08:21:45.681Z,4.78
2022-07-28T08:24:47.594Z,4.82
2022-07-28T08:27:49.886Z,4.05
2022-07-28T08:30:51.883Z,4.25
2022-07-28T08:33:54.950Z,4.22
2022-07-28T08:36:57.542Z,3.80
2022-07-28T08:39:59.609Z,4.22
2022-07-28T08:46:20.259Z,3.95
2022-07-28T08:49:22.266Z,4.35
2022-07-28T08:58:36.339Z,3.90
2022-07-28T09:01:39.456Z,4.20
2022-07-28T09:04:42.355Z,3.75
2022-07-28T09:07:44.613Z,4.45
2022-07-28T09:10:47.856Z,4.05
2022-07-28T09:13:53.774Z,3.95
2022-07-28T09:16:58.375Z,3.90
2022-07-28T09:20:01.261Z,4.47
2022-07-28T09:23:05.768Z,3.65
2022-07-28T09:26:27.722Z,3.75
2022-07-28T09:32:31.872Z,3.40
2022-07-28T09:38:44.798Z,4.43
2022-07-28T09:41:54.354Z,3.45
2022-07-28T09:45:24.887Z,3.47
2022-07-28T09:48:27.455Z,3.35
2022-07-28T09:51:31.729Z,3.10
2022-07-28T09:54:38.783Z,3.92
2022-07-28T09:57:45.904Z,3.55
2022-07-28T10:00:48.471Z,3.50
2022-07-28T10:03:53.558Z,3.30
2022-07-28T10:07:02.105Z,3.63
2022-07-28T10:10:08.654Z,3.72
2022-07-28T10:13:10.566Z,3.58
2022-07-28T10:19:14.395Z,3.42
2022-07-28T10:25:22.109Z,3.47
2022-07-28T10:28:24.934Z,3.38
2022-07-28T10:31:33.284Z,3.70
2022-07-28T10:34:39.441Z,3.35
2022-07-28T10:37:58.703Z,3.30
2022-07-28T10:41:03.339Z,2.80
2022-07-28T10:44:06.216Z,3.00
2022-07-28T10:47:18.601Z,3.00
2022-07-28T10:50:22.660Z,2.65
2022-07-28T10:53:51.370Z,3.20
2022-07-28T10:56:57.393Z,3.20
2022-07-28T11:00:24.368Z,3.17
2022-07-28T11:03:41.406Z,3.67
2022-07-28T11:06:43.538Z,2.53
2022-07-28T11:09:46.788Z,2.42
2022-07-28T11:12:50.013Z,3.28
2022-07-28T11:15:52.104Z,3.28
2022-07-28T11:19:08.065Z,3.33
2022-07-28T11:22:28.164Z,3.17
2022-07-28T11:25:30.174Z,3.13
2022-07-28T11:28:32.550Z,3.03
2022-07-28T11:31:46.374Z,3.65
2022-07-28T11:35:21.642Z,3.03
2022-07-28T11:38:23.609Z,3.85
2022-07-28T11:44:33.202Z,3.28
2022-07-28T11:47:35.161Z,3.33
2022-07-28T11:53:44.462Z,3.38
2022-07-28T11:56:58.030Z,3.30
2022-07-28T12:00:01.633Z,3.05
2022-07-28T12:03:03.631Z,3.22
2022-07-28T12:06:12.649Z,3.00
2022-07-28T12:09:16.075Z,3.00
2022-07-28T12:12:18.827Z,3.25
2022-07-28T12:15:21.358Z,3.53
2022-07-28T12:18:25.451Z,2.78
2022-07-28T12:21:47.613Z,3.25
2022-07-28T12:24:57.141Z,3.47
2022-07-28T12:28:12.626Z,3.33
2022-07-28T12:31:14.728Z,3.13
2022-07-28T12:34:17.078Z,3.05
2022-07-28T12:37:19.312Z,3.08
2022-07-28T12:40:26.691Z,3.03
2022-07-28T12:43:29.896Z,3.20
2022-07-28T12:46:32.740Z,2.60
2022-07-28T12:49:35.852Z,3.13
2022-07-28T12:52:37.868Z,3.00
2022-07-28T12:55:41.611Z,8.50
2022-07-28T12:58:43.549Z,3.35
2022-07-28T13:01:45.407Z,3.20
2022-07-28T13:04:49.805Z,3.15
2022-07-28T13:07:59.276Z,8.80
2022-07-28T13:11:07.316Z,3.28
2022-07-28T13:14:11.842Z,3.88
2022-07-28T13:17:14.016Z,3.50
2022-07-28T13:23:18.087Z,3.10
2022-07-28T13:26:20.006Z,2.95
2022-07-28T13:29:22.014Z,3.45
2022-07-28T13:35:25.990Z,3.10
2022-07-28T13:41:56.130Z,3.08
2022-07-28T13:44:51.700Z,4.28
2022-07-28T13:50:55.691Z,3.10
2022-07-28T13:56:59.626Z,3.65
2022-07-28T14:00:01.599Z,3.80
2022-07-28T14:03:04.143Z,3.25
2022-07-28T14:06:10.431Z,3.08
2022-07-28T14:12:20.077Z,2.65
2022-07-28T14:18:24.916Z,3.00
2022-07-28T14:21:28.431Z,2.60
2022-07-28T14:24:30.635Z,3.10
2022-07-28T14:27:32.731Z,2.75
2022-07-28T14:30:34.682Z,2.65
2022-07-28T14:33:44.954Z,2.80
2022-07-28T14:36:48.424Z,2.78
2022-07-28T14:39:52.805Z,2.60
2022-07-28T14:42:54.731Z,3.97
2022-07-28T14:46:12.509Z,2.90
2022-07-28T14:49:16.961Z,2.60
2022-07-28T14:52:18.973Z,2.33
2022-07-28T14:55:22.043Z,2.40
2022-07-28T14:58:24.025Z,2.83
2022-07-28T15:01:25.971Z,2.70
2022-07-28T15:04:27.993Z,2.35
2022-07-28T15:07:29.947Z,2.70
2022-07-28T15:10:31.887Z,2.60
2022-07-28T15:13:33.824Z,2.78
2022-07-28T15:16:36.496Z,2.40
2022-07-28T15:19:38.680Z,2.70
2022-07-28T15:22:40.809Z,2.00
2022-07-28T15:25:43.112Z,2.55
2022-07-28T15:28:45.270Z,2.53
2022-07-28T15:31:49.690Z,2.65
2022-07-28T15:34:51.860Z,2.88
2022-07-28T15:37:54.686Z,3.00
2022-07-28T15:40:56.844Z,2.92
2022-07-28T15:43:58.923Z,2.63
2022-07-28T15:47:01.121Z,2.95
2022-07-28T15:50:06.177Z,2.70
2022-07-28T15:53:08.268Z,3.35
2022-07-28T15:59:12.325Z,2.80
2022-07-28T16:05:20.414Z,2.90
2022-07-28T16:08:23.372Z,2.83
2022-07-28T16:11:25.599Z,2.58
2022-07-28T16:17:29.635Z,2.45
2022-07-28T16:23:34.462Z,3.10
2022-07-28T16:26:36.579Z,2.53
2022-07-28T16:32:40.705Z,3.60
2022-07-28T16:35:42.821Z,3.00
2022-07-28T16:41:48.207Z,2.53
2022-07-28T16:44:50.475Z,2.55
2022-07-28T16:47:52.373Z,2.97
2022-07-28T16:50:54.341Z,2.92
2022-07-28T16:53:56.251Z,3.42
2022-07-28T16:56:58.177Z,3.10
2022-07-28T17:00:00.122Z,3.53
2022-07-28T17:03:02.091Z,3.00
2022-07-28T17:06:04.438Z,3.40
2022-07-28T17:09:06.543Z,2.83
2022-07-28T17:12:08.596Z,3.17
2022-07-28T17:15:21.782Z,3.17
2022-07-28T17:18:25.364Z,2.97
2022-07-28T17:21:27.294Z,2.95
2022-07-28T17:24:29.213Z,2.63
2022-07-28T17:27:37.358Z,3.30
2022-07-28T17:30:40.262Z,2.72
2022-07-28T17:33:42.307Z,3.25
2022-07-28T17:36:44.699Z,2.90
2022-07-28T17:39:46.637Z,3.10
2022-07-28T17:42:48.903Z,3.17
2022-07-28T17:48:52.877Z,3.40
2022-07-28T17:51:54.810Z,3.53
2022-07-28T17:54:56.677Z,4.00
2022-07-28T17:58:10.167Z,3.63
2022-07-28T18:01:13.492Z,4.47
2022-07-28T18:04:15.731Z,3.33
2022-07-28T18:10:24.765Z,4.03
2022-07-28T18:13:28.152Z,3.65
2022-07-28T18:16:30.188Z,3.95
2022-07-28T18:19:32.212Z,3.95
2022-07-28T18:22:34.239Z,3.83
2022-07-28T18:25:37.723Z,5.28
2022-07-28T18:28:40.979Z,3.50
2022-07-28T18:31:46.616Z,3.60
2022-07-28T18:34:48.975Z,3.50
2022-07-28T18:37:51.391Z,3.90
2022-07-28T18:40:53.362Z,3.17
2022-07-28T18:43:55.260Z,3.60
2022-07-28T18:46:57.164Z,3.88
2022-07-28T18:49:59.580Z,4.22
2022-07-28T18:53:01.994Z,3.80
2022-07-28T18:56:04.394Z,4.65
2022-07-28T19:02:08.299Z,3.75
2022-07-28T19:05:10.354Z,3.72
2022-07-28T19:08:12.616Z,3.80
2022-07-28T19:11:19.486Z,4.90
2022-07-28T19:14:21.659Z,4.28
2022-07-28T19:17:26.036Z,4.63
2022-07-28T19:20:28.213Z,4.43
2022-07-28T19:23:30.226Z,4.15
2022-07-28T19:26:32.342Z,4.80
2022-07-28T19:29:35.299Z,4.20
2022-07-28T19:32:37.508Z,3.83
2022-07-28T19:35:39.573Z,4.88
2022-07-28T19:38:41.808Z,4.32
2022-07-28T19:41:43.785Z,4.28
2022-07-28T19:44:45.691Z,4.13
2022-07-28T19:47:49.994Z,4.28
2022-07-28T19:50:52.237Z,4.00
2022-07-28T19:53:54.193Z,4.22
2022-07-28T19:56:59.609Z,4.30
2022-07-28T20:00:02.528Z,4.35
2022-07-28T20:03:04.759Z,4.13
2022-07-28T20:06:26.658Z,4.68
2022-07-28T20:09:28.622Z,4.07
2022-07-28T20:12:36.144Z,4.22
2022-07-28T20:15:38.289Z,4.72
2022-07-28T20:18:40.189Z,5.00
2022-07-28T20:21:42.134Z,4.30
2022-07-28T20:24:44.522Z,4.32
2022-07-28T20:27:46.436Z,4.05
2022-07-28T20:30:48.396Z,4.70
2022-07-28T20:33:50.607Z,4.60
2022-07-28T20:36:52.933Z,4.55
2022-07-28T20:39:54.848Z,4.90
2022-07-28T20:42:56.765Z,4.40
2022-07-28T20:45:58.800Z,5.15
2022-07-28T20:49:00.783Z,4.93
2022-07-28T20:52:02.920Z,5.13
2022-07-28T20:55:05.127Z,4.40
2022-07-28T20:58:07.108Z,4.40
2022-07-28T21:01:09.786Z,4.60
2022-07-28T21:04:11.931Z,5.18
2022-07-28T21:07:14.523Z,4.95
2022-07-28T21:10:16.707Z,4.60
2022-07-28T21:13:18.717Z,4.70
2022-07-28T21:16:20.782Z,5.13
2022-07-28T21:19:22.752Z,5.38
2022-07-28T21:22:24.874Z,4.50
2022-07-28T21:25:26.927Z,4.50
2022-07-28T21:28:28.828Z,5.55
2022-07-28T21:31:30.711Z,5.00
2022-07-28T21:34:33.899Z,5.00
2022-07-28T21:37:36.349Z,5.63
2022-07-28T21:40:38.267Z,5.07
2022-07-28T21:43:40.242Z,5.50
2022-07-28T21:46:42.174Z,5.95
2022-07-28T21:49:44.107Z,5.80
2022-07-28T21:52:45.986Z,4.60
2022-07-28T21:55:48.083Z,5.30
2022-07-28T21:58:49.995Z,5.25
2022-07-28T22:01:51.960Z,5.35
2022-07-28T22:04:54.104Z,5.28
2022-07-28T22:07:56.454Z,4.78
2022-07-28T22:10:58.866Z,5.32
2022-07-28T22:17:03.473Z,4.90
2022-07-28T22:20:06.468Z,5.50
2022-07-28T22:23:17.908Z,5.50
2022-07-28T22:26:30.655Z,5.25
2022-07-28T22:29:32.589Z,5.78
2022-07-28T22:32:34.509Z,4.88
2022-07-28T22:35:36.433Z,4.97
2022-07-28T22:38:38.380Z,5.53
2022-07-28T22:41:40.316Z,5.70
2022-07-28T22:44:43.932Z,5.70
2022-07-28T22:47:45.848Z,5.25
2022-07-28T22:50:47.772Z,4.72
2022-07-28T22:53:49.686Z,5.70
2022-07-28T22:56:51.578Z,5.32
2022-07-28T22:59:53.720Z,5.53
2022-07-28T23:02:55.719Z,5.55
2022-07-28T23:09:01.475Z,5.47
2022-07-28T23:12:03.685Z,5.25
2022-07-28T23:15:06.492Z,5.38
2022-07-28T23:18:09.630Z,5.40
2022-07-28T23:21:12.072Z,5.55
2022-07-28T23:24:14.352Z,5.57
2022-07-28T23:27:16.503Z,5.18
2022-07-28T23:30:18.547Z,5.13
2022-07-28T23:33:54.233Z,6.43
2022-07-28T23:36:42.568Z,5.65
2022-07-28T23:39:44.502Z,6.22
2022-07-28T23:42:46.390Z,5.70
2022-07-28T23:45:49.452Z,5.35
2022-07-28T23:48:51.582Z,6.35
2022-07-28T23:51:53.630Z,5.50
2022-07-28T23:54:55.613Z,5.57
2022-07-28T23:57:57.526Z,5.97
